sensor_id;sensor_type;location;lat;lon;timestamp;P1;durP1;ratioP1;P2;durP2;ratioP2
33427;SDS011;19769;48.150;16.306;2022-09-09T00:04:53;1.88;;;1.00;;
33427;SDS011;19769;48.150;16.306;2022-09-09T00:07:41;1.30;;;0.90;;
33427;SDS011;19769;48.150;16.306;2022-09-09T00:10:26;1.60;;;0.93;;
33427;SDS011;19769;48.150;16.306;2022-09-09T00:13:22;1.75;;;0.85;;
33427;SDS011;19769;48.150;16.306;2022-09-09T00:18:54;3.08;;;1.02;;
33427;SDS011;19769;48.150;16.306;2022-09-09T00:21:33;1.85;;;1.05;;
33427;SDS011;19769;48.150;16.306;2022-09-09T00:27:19;1.80;;;0.88;;
33427;SDS011;19769;48.150;16.306;2022-09-09T00:30:13;2.53;;;0.70;;
33427;SDS011;19769;48.150;16.306;2022-09-09T00:32:45;1.33;;;0.70;;
33427;SDS011;19769;48.150;16.306;2022-09-09T00:35:26;2.00;;;0.77;;
33427;SDS011;19769;48.150;16.306;2022-09-09T00:38:05;1.60;;;0.90;;
33427;SDS011;19769;48.150;16.306;2022-09-09T00:40:50;1.77;;;0.93;;
33427;SDS011;19769;48.150;16.306;2022-09-09T00:54:31;1.95;;;0.90;;
33427;SDS011;19769;48.150;16.306;2022-09-09T01:05:07;1.38;;;0.90;;
33427;SDS011;19769;48.150;16.306;2022-09-09T01:07:39;2.35;;;0.73;;
33427;SDS011;19769;48.150;16.306;2022-09-09T01:13:16;1.90;;;1.00;;
33427;SDS011;19769;48.150;16.306;2022-09-09T01:15:50;1.45;;;0.95;;
33427;SDS011;19769;48.150;16.306;2022-09-09T01:18:20;2.28;;;0.90;;
33427;SDS011;19769;48.150;16.306;2022-09-09T01:26:43;2.58;;;1.13;;
33427;SDS011;19769;48.150;16.306;2022-09-09T01:29:22;2.28;;;1.02;;
33427;SDS011;19769;48.150;16.306;2022-09-09T01:31:53;1.80;;;1.00;;
33427;SDS011;19769;48.150;16.306;2022-09-09T01:34:25;2.25;;;0.98;;
33427;SDS011;19769;48.150;16.306;2022-09-09T01:37:06;2.42;;;1.10;;
33427;SDS011;19769;48.150;16.306;2022-09-09T01:39:36;1.92;;;0.80;;
33427;SDS011;19769;48.150;16.306;2022-09-09T01:42:08;1.23;;;0.80;;
33427;SDS011;19769;48.150;16.306;2022-09-09T01:44:36;1.70;;;0.82;;
33427;SDS011;19769;48.150;16.306;2022-09-09T01:47:03;3.42;;;1.10;;
33427;SDS011;19769;48.150;16.306;2022-09-09T01:49:30;2.08;;;0.80;;
33427;SDS011;19769;48.150;16.306;2022-09-09T01:52:00;1.27;;;0.80;;
33427;SDS011;19769;48.150;16.306;2022-09-09T01:54:34;2.58;;;0.77;;
33427;SDS011;19769;48.150;16.306;2022-09-09T01:57:15;2.50;;;1.00;;
33427;SDS011;19769;48.150;16.306;2022-09-09T01:59:53;0.98;;;0.70;;
33427;SDS011;19769;48.150;16.306;2022-09-09T02:11:10;1.27;;;0.70;;
33427;SDS011;19769;48.150;16.306;2022-09-09T02:13:43;1.50;;;0.90;;
33427;SDS011;19769;48.150;16.306;2022-09-09T02:16:14;1.15;;;0.70;;
33427;SDS011;19769;48.150;16.306;2022-09-09T02:21:32;1.10;;;0.70;;
33427;SDS011;19769;48.150;16.306;2022-09-09T02:24:03;1.50;;;0.85;;
33427;SDS011;19769;48.150;16.306;2022-09-09T02:26:37;1.80;;;0.70;;
33427;SDS011;19769;48.150;16.306;2022-09-09T02:29:09;1.10;;;0.70;;
33427;SDS011;19769;48.150;16.306;2022-09-09T02:31:51;3.70;;;0.80;;
33427;SDS011;19769;48.150;16.306;2022-09-09T02:34:24;1.20;;;0.80;;
33427;SDS011;19769;48.150;16.306;2022-09-09T02:36:53;2.72;;;0.90;;
33427;SDS011;19769;48.150;16.306;2022-09-09T02:39:20;1.40;;;0.80;;
33427;SDS011;19769;48.150;16.306;2022-09-09T02:41:46;1.48;;;0.80;;
33427;SDS011;19769;48.150;16.306;2022-09-09T02:44:13;2.42;;;1.10;;
33427;SDS011;19769;48.150;16.306;2022-09-09T02:52:33;1.40;;;0.90;;
33427;SDS011;19769;48.150;16.306;2022-09-09T02:55:07;2.78;;;0.90;;
33427;SDS011;19769;48.150;16.306;2022-09-09T02:58:00;1.33;;;0.90;;
33427;SDS011;19769;48.150;16.306;2022-09-09T03:00:32;1.63;;;1.20;;
33427;SDS011;19769;48.150;16.306;2022-09-09T03:03:00;1.95;;;1.10;;
33427;SDS011;19769;48.150;16.306;2022-09-09T03:05:26;3.75;;;1.10;;
33427;SDS011;19769;48.150;16.306;2022-09-09T03:07:53;3.15;;;1.33;;
33427;SDS011;19769;48.150;16.306;2022-09-09T03:10:19;1.63;;;1.17;;
33427;SDS011;19769;48.150;16.306;2022-09-09T03:12:46;1.88;;;0.90;;
33427;SDS011;19769;48.150;16.306;2022-09-09T03:15:11;2.10;;;1.00;;
33427;SDS011;19769;48.150;16.306;2022-09-09T03:17:39;1.80;;;0.98;;
33427;SDS011;19769;48.150;16.306;2022-09-09T03:20:05;3.42;;;1.15;;
33427;SDS011;19769;48.150;16.306;2022-09-09T03:22:33;2.95;;;1.30;;
33427;SDS011;19769;48.150;16.306;2022-09-09T03:25:00;2.58;;;1.48;;
33427;SDS011;19769;48.150;16.306;2022-09-09T03:27:28;3.45;;;1.65;;
33427;SDS011;19769;48.150;16.306;2022-09-09T03:29:54;2.88;;;1.50;;
33427;SDS011;19769;48.150;16.306;2022-09-09T03:32:23;2.55;;;1.17;;
33427;SDS011;19769;48.150;16.306;2022-09-09T03:34:52;3.33;;;1.10;;
33427;SDS011;19769;48.150;16.306;2022-09-09T03:37:20;2.28;;;1.10;;
33427;SDS011;19769;48.150;16.306;2022-09-09T03:39:49;1.58;;;0.90;;
33427;SDS011;19769;48.150;16.306;2022-09-09T03:42:16;1.73;;;0.98;;
33427;SDS011;19769;48.150;16.306;2022-09-09T03:44:45;1.35;;;0.80;;
33427;SDS011;19769;48.150;16.306;2022-09-09T03:47:17;1.80;;;0.98;;
33427;SDS011;19769;48.150;16.306;2022-09-09T03:49:44;1.65;;;0.80;;
33427;SDS011;19769;48.150;16.306;2022-09-09T03:52:10;1.38;;;0.88;;
33427;SDS011;19769;48.150;16.306;2022-09-09T03:54:36;1.30;;;0.80;;
33427;SDS011;19769;48.150;16.306;2022-09-09T03:57:04;1.40;;;0.90;;
33427;SDS011;19769;48.150;16.306;2022-09-09T03:59:30;1.77;;;1.13;;
33427;SDS011;19769;48.150;16.306;2022-09-09T04:01:55;1.70;;;1.00;;
33427;SDS011;19769;48.150;16.306;2022-09-09T04:04:24;1.55;;;1.00;;
33427;SDS011;19769;48.150;16.306;2022-09-09T04:06:52;1.63;;;0.90;;
33427;SDS011;19769;48.150;16.306;2022-09-09T04:09:18;1.80;;;1.00;;
33427;SDS011;19769;48.150;16.306;2022-09-09T04:11:44;1.90;;;1.00;;
33427;SDS011;19769;48.150;16.306;2022-09-09T04:14:11;2.35;;;1.30;;
33427;SDS011;19769;48.150;16.306;2022-09-09T04:16:38;1.30;;;0.75;;
33427;SDS011;19769;48.150;16.306;2022-09-09T04:19:04;1.80;;;0.90;;
33427;SDS011;19769;48.150;16.306;2022-09-09T04:21:32;1.65;;;0.85;;
33427;SDS011;19769;48.150;16.306;2022-09-09T04:24:00;3.88;;;1.08;;
33427;SDS011;19769;48.150;16.306;2022-09-09T04:26:26;3.30;;;1.00;;
33427;SDS011;19769;48.150;16.306;2022-09-09T04:28:53;2.15;;;1.00;;
33427;SDS011;19769;48.150;16.306;2022-09-09T04:31:20;2.38;;;0.98;;
33427;SDS011;19769;48.150;16.306;2022-09-09T04:33:50;4.40;;;1.23;;
33427;SDS011;19769;48.150;16.306;2022-09-09T04:36:16;2.13;;;1.13;;
33427;SDS011;19769;48.150;16.306;2022-09-09T04:38:44;3.95;;;1.40;;
33427;SDS011;19769;48.150;16.306;2022-09-09T04:41:11;3.55;;;1.10;;
33427;SDS011;19769;48.150;16.306;2022-09-09T04:43:41;2.67;;;1.30;;
33427;SDS011;19769;48.150;16.306;2022-09-09T04:46:08;2.63;;;1.50;;
33427;SDS011;19769;48.150;16.306;2022-09-09T04:48:34;2.80;;;1.58;;
33427;SDS011;19769;48.150;16.306;2022-09-09T04:51:06;4.85;;;1.30;;
33427;SDS011;19769;48.150;16.306;2022-09-09T04:53:33;2.42;;;1.30;;
33427;SDS011;19769;48.150;16.306;2022-09-09T04:56:10;2.42;;;1.35;;
33427;SDS011;19769;48.150;16.306;2022-09-09T04:58:41;4.18;;;1.73;;
33427;SDS011;19769;48.150;16.306;2022-09-09T05:01:09;4.63;;;1.75;;
33427;SDS011;19769;48.150;16.306;2022-09-09T05:03:37;2.60;;;1.90;;
33427;SDS011;19769;48.150;16.306;2022-09-09T05:06:09;3.60;;;1.67;;
33427;SDS011;19769;48.150;16.306;2022-09-09T05:09:10;3.15;;;1.92;;
33427;SDS011;19769;48.150;16.306;2022-09-09T05:11:40;4.85;;;1.80;;
33427;SDS011;19769;48.150;16.306;2022-09-09T05:14:16;3.17;;;1.80;;
33427;SDS011;19769;48.150;16.306;2022-09-09T05:16:44;3.08;;;1.92;;
33427;SDS011;19769;48.150;16.306;2022-09-09T05:19:12;3.17;;;1.83;;
33427;SDS011;19769;48.150;16.306;2022-09-09T05:21:44;4.80;;;2.30;;
33427;SDS011;19769;48.150;16.306;2022-09-09T05:24:12;5.88;;;2.50;;
33427;SDS011;19769;48.150;16.306;2022-09-09T05:26:38;4.10;;;2.15;;
33427;SDS011;19769;48.150;16.306;2022-09-09T05:29:05;2.78;;;1.80;;
33427;SDS011;19769;48.150;16.306;2022-09-09T05:31:33;3.67;;;1.90;;
33427;SDS011;19769;48.150;16.306;2022-09-09T05:34:03;2.95;;;1.70;;
33427;SDS011;19769;48.150;16.306;2022-09-09T05:36:29;5.63;;;1.80;;
33427;SDS011;19769;48.150;16.306;2022-09-09T05:38:55;4.57;;;1.70;;
33427;SDS011;19769;48.150;16.306;2022-09-09T05:41:23;3.80;;;1.90;;
33427;SDS011;19769;48.150;16.306;2022-09-09T05:43:52;4.82;;;1.85;;
33427;SDS011;19769;48.150;16.306;2022-09-09T05:46:20;3.78;;;1.83;;
33427;SDS011;19769;48.150;16.306;2022-09-09T05:48:49;4.35;;;2.40;;
33427;SDS011;19769;48.150;16.306;2022-09-09T05:51:18;3.85;;;2.33;;
33427;SDS011;19769;48.150;16.306;2022-09-09T05:53:49;3.35;;;2.10;;
33427;SDS011;19769;48.150;16.306;2022-09-09T05:56:22;5.05;;;1.70;;
33427;SDS011;19769;48.150;16.306;2022-09-09T05:58:53;2.75;;;1.63;;
33427;SDS011;19769;48.150;16.306;2022-09-09T06:01:24;4.47;;;1.90;;
33427;SDS011;19769;48.150;16.306;2022-09-09T06:03:51;8.57;;;2.00;;
33427;SDS011;19769;48.150;16.306;2022-09-09T06:06:22;4.70;;;2.17;;
33427;SDS011;19769;48.150;16.306;2022-09-09T06:08:50;5.45;;;2.40;;
33427;SDS011;19769;48.150;16.306;2022-09-09T06:11:21;5.30;;;2.10;;
33427;SDS011;19769;48.150;16.306;2022-09-09T06:13:48;4.40;;;1.95;;
33427;SDS011;19769;48.150;16.306;2022-09-09T06:16:17;5.72;;;1.95;;
33427;SDS011;19769;48.150;16.306;2022-09-09T06:18:44;5.68;;;2.20;;
33427;SDS011;19769;48.150;16.306;2022-09-09T06:21:21;4.85;;;2.15;;
33427;SDS011;19769;48.150;16.306;2022-09-09T06:23:47;5.15;;;2.72;;
33427;SDS011;19769;48.150;16.306;2022-09-09T06:26:15;8.32;;;5.10;;
33427;SDS011;19769;48.150;16.306;2022-09-09T06:28:44;8.27;;;6.10;;
33427;SDS011;19769;48.150;16.306;2022-09-09T06:31:12;16.80;;;10.75;;
33427;SDS011;19769;48.150;16.306;2022-09-09T06:33:40;5.13;;;3.30;;
33427;SDS011;19769;48.150;16.306;2022-09-09T06:36:10;4.43;;;2.05;;
33427;SDS011;19769;48.150;16.306;2022-09-09T06:38:36;3.85;;;1.90;;
33427;SDS011;19769;48.150;16.306;2022-09-09T06:41:03;4.75;;;1.90;;
33427;SDS011;19769;48.150;16.306;2022-09-09T06:43:31;2.95;;;1.63;;
33427;SDS011;19769;48.150;16.306;2022-09-09T06:46:00;3.03;;;1.67;;
33427;SDS011;19769;48.150;16.306;2022-09-09T06:48:27;2.50;;;1.80;;
33427;SDS011;19769;48.150;16.306;2022-09-09T06:51:04;3.05;;;1.67;;
33427;SDS011;19769;48.150;16.306;2022-09-09T06:53:32;3.30;;;2.10;;
33427;SDS011;19769;48.150;16.306;2022-09-09T06:58:37;4.47;;;1.83;;
33427;SDS011;19769;48.150;16.306;2022-09-09T07:01:10;4.15;;;1.77;;
33427;SDS011;19769;48.150;16.306;2022-09-09T07:03:38;3.00;;;1.90;;
33427;SDS011;19769;48.150;16.306;2022-09-09T07:06:05;4.63;;;2.10;;
33427;SDS011;19769;48.150;16.306;2022-09-09T07:08:32;2.05;;;1.60;;
33427;SDS011;19769;48.150;16.306;2022-09-09T07:11:02;3.70;;;2.08;;
33427;SDS011;19769;48.150;16.306;2022-09-09T07:13:31;5.80;;;2.23;;
33427;SDS011;19769;48.150;16.306;2022-09-09T07:16:08;4.85;;;2.22;;
33427;SDS011;19769;48.150;16.306;2022-09-09T07:18:35;3.45;;;2.38;;
33427;SDS011;19769;48.150;16.306;2022-09-09T07:21:02;7.03;;;3.05;;
33427;SDS011;19769;48.150;16.306;2022-09-09T07:23:29;5.63;;;2.90;;
33427;SDS011;19769;48.150;16.306;2022-09-09T07:25:58;3.25;;;2.08;;
33427;SDS011;19769;48.150;16.306;2022-09-09T07:28:25;4.40;;;1.90;;
33427;SDS011;19769;48.150;16.306;2022-09-09T07:30:53;3.45;;;2.00;;
33427;SDS011;19769;48.150;16.306;2022-09-09T07:33:20;4.72;;;2.20;;
33427;SDS011;19769;48.150;16.306;2022-09-09T07:35:46;4.45;;;2.13;;
33427;SDS011;19769;48.150;16.306;2022-09-09T07:38:13;4.75;;;2.03;;
33427;SDS011;19769;48.150;16.306;2022-09-09T07:40:41;3.22;;;2.10;;
33427;SDS011;19769;48.150;16.306;2022-09-09T07:43:07;3.33;;;2.08;;
33427;SDS011;19769;48.150;16.306;2022-09-09T07:45:34;2.90;;;2.05;;
33427;SDS011;19769;48.150;16.306;2022-09-09T07:48:01;3.50;;;2.00;;
33427;SDS011;19769;48.150;16.306;2022-09-09T07:50:28;3.67;;;1.90;;
33427;SDS011;19769;48.150;16.306;2022-09-09T07:52:54;3.40;;;1.98;;
33427;SDS011;19769;48.150;16.306;2022-09-09T07:55:20;3.13;;;1.80;;
33427;SDS011;19769;48.150;16.306;2022-09-09T07:57:50;5.00;;;2.33;;
33427;SDS011;19769;48.150;16.306;2022-09-09T08:00:17;3.08;;;1.70;;
33427;SDS011;19769;48.150;16.306;2022-09-09T08:02:49;4.35;;;2.42;;
33427;SDS011;19769;48.150;16.306;2022-09-09T08:05:15;3.47;;;1.80;;
33427;SDS011;19769;48.150;16.306;2022-09-09T08:07:43;2.88;;;1.95;;
33427;SDS011;19769;48.150;16.306;2022-09-09T08:10:09;4.47;;;2.10;;
33427;SDS011;19769;48.150;16.306;2022-09-09T08:12:37;3.53;;;1.60;;
33427;SDS011;19769;48.150;16.306;2022-09-09T08:15:03;2.60;;;1.90;;
33427;SDS011;19769;48.150;16.306;2022-09-09T08:17:32;2.92;;;1.70;;
33427;SDS011;19769;48.150;16.306;2022-09-09T08:20:02;2.10;;;1.40;;
33427;SDS011;19769;48.150;16.306;2022-09-09T08:22:31;2.75;;;1.33;;
33427;SDS011;19769;48.150;16.306;2022-09-09T08:24:58;3.58;;;1.80;;
33427;SDS011;19769;48.150;16.306;2022-09-09T08:27:24;3.17;;;1.80;;
33427;SDS011;19769;48.150;16.306;2022-09-09T08:29:52;4.03;;;2.00;;
33427;SDS011;19769;48.150;16.306;2022-09-09T08:32:18;4.63;;;1.70;;
33427;SDS011;19769;48.150;16.306;2022-09-09T08:34:46;3.90;;;1.80;;
33427;SDS011;19769;48.150;16.306;2022-09-09T08:37:18;4.63;;;1.77;;
33427;SDS011;19769;48.150;16.306;2022-09-09T08:39:45;3.63;;;1.90;;
33427;SDS011;19769;48.150;16.306;2022-09-09T08:42:35;3.95;;;1.80;;
33427;SDS011;19769;48.150;16.306;2022-09-09T08:48:19;2.90;;;1.50;;
33427;SDS011;19769;48.150;16.306;2022-09-09T08:51:00;4.70;;;1.60;;
33427;SDS011;19769;48.150;16.306;2022-09-09T08:53:35;3.90;;;1.42;;
33427;SDS011;19769;48.150;16.306;2022-09-09T08:56:08;3.78;;;1.60;;
33427;SDS011;19769;48.150;16.306;2022-09-09T08:58:46;4.00;;;1.88;;
33427;SDS011;19769;48.150;16.306;2022-09-09T09:12:02;3.72;;;1.70;;
33427;SDS011;19769;48.150;16.306;2022-09-09T09:14:35;3.35;;;1.60;;
33427;SDS011;19769;48.150;16.306;2022-09-09T09:17:18;3.85;;;1.30;;
33427;SDS011;19769;48.150;16.306;2022-09-09T09:19:46;5.22;;;1.45;;
33427;SDS011;19769;48.150;16.306;2022-09-09T09:24:48;2.88;;;1.40;;
33427;SDS011;19769;48.150;16.306;2022-09-09T09:27:26;5.55;;;1.60;;
33427;SDS011;19769;48.150;16.306;2022-09-09T09:29:56;4.03;;;1.50;;
33427;SDS011;19769;48.150;16.306;2022-09-09T09:32:24;2.10;;;1.27;;
33427;SDS011;19769;48.150;16.306;2022-09-09T09:34:53;3.10;;;1.20;;
33427;SDS011;19769;48.150;16.306;2022-09-09T09:37:27;2.50;;;1.35;;
33427;SDS011;19769;48.150;16.306;2022-09-09T09:42:21;2.63;;;1.20;;
33427;SDS011;19769;48.150;16.306;2022-09-09T09:44:49;1.83;;;1.20;;
33427;SDS011;19769;48.150;16.306;2022-09-09T09:47:22;2.10;;;1.25;;
33427;SDS011;19769;48.150;16.306;2022-09-09T09:50:18;2.40;;;1.27;;
33427;SDS011;19769;48.150;16.306;2022-09-09T09:52:58;2.15;;;1.10;;
33427;SDS011;19769;48.150;16.306;2022-09-09T09:55:31;2.03;;;0.90;;
33427;SDS011;19769;48.150;16.306;2022-09-09T09:58:02;2.47;;;1.00;;
33427;SDS011;19769;48.150;16.306;2022-09-09T10:00:30;1.80;;;1.05;;
33427;SDS011;19769;48.150;16.306;2022-09-09T10:03:12;2.83;;;1.33;;
33427;SDS011;19769;48.150;16.306;2022-09-09T10:05:56;1.83;;;1.10;;
33427;SDS011;19769;48.150;16.306;2022-09-09T10:08:23;2.50;;;1.40;;
33427;SDS011;19769;48.150;16.306;2022-09-09T10:20:58;3.15;;;1.30;;
33427;SDS011;19769;48.150;16.306;2022-09-09T10:26:13;2.75;;;1.13;;
33427;SDS011;19769;48.150;16.306;2022-09-09T10:31:25;1.77;;;1.20;;
33427;SDS011;19769;48.150;16.306;2022-09-09T10:36:26;3.13;;;1.35;;
33427;SDS011;19769;48.150;16.306;2022-09-09T10:39:18;3.38;;;1.40;;
33427;SDS011;19769;48.150;16.306;2022-09-09T10:41:52;2.08;;;1.25;;
33427;SDS011;19769;48.150;16.306;2022-09-09T10:44:46;4.97;;;1.33;;
33427;SDS011;19769;48.150;16.306;2022-09-09T10:49:59;3.05;;;1.90;;
33427;SDS011;19769;48.150;16.306;2022-09-09T10:52:34;3.60;;;1.88;;
33427;SDS011;19769;48.150;16.306;2022-09-09T10:57:51;4.20;;;1.42;;
33427;SDS011;19769;48.150;16.306;2022-09-09T11:00:18;2.90;;;1.30;;
33427;SDS011;19769;48.150;16.306;2022-09-09T11:02:59;2.30;;;1.35;;
33427;SDS011;19769;48.150;16.306;2022-09-09T11:05:31;3.15;;;1.05;;
33427;SDS011;19769;48.150;16.306;2022-09-09T11:08:05;2.70;;;1.05;;
33427;SDS011;19769;48.150;16.306;2022-09-09T11:10:36;2.17;;;1.20;;
33427;SDS011;19769;48.150;16.306;2022-09-09T11:13:11;1.48;;;1.00;;
33427;SDS011;19769;48.150;16.306;2022-09-09T11:15:45;2.35;;;1.20;;
33427;SDS011;19769;48.150;16.306;2022-09-09T11:20:44;2.10;;;1.10;;
33427;SDS011;19769;48.150;16.306;2022-09-09T11:23:21;2.25;;;1.30;;
33427;SDS011;19769;48.150;16.306;2022-09-09T11:25:55;1.38;;;1.20;;
33427;SDS011;19769;48.150;16.306;2022-09-09T11:31:35;1.98;;;1.00;;
33427;SDS011;19769;48.150;16.306;2022-09-09T11:34:27;1.50;;;0.90;;
33427;SDS011;19769;48.150;16.306;2022-09-09T11:40:14;1.65;;;1.10;;
33427;SDS011;19769;48.150;16.306;2022-09-09T11:42:44;1.25;;;0.98;;
33427;SDS011;19769;48.150;16.306;2022-09-09T11:48:02;2.13;;;1.30;;
33427;SDS011;19769;48.150;16.306;2022-09-09T11:50:30;1.95;;;1.13;;
33427;SDS011;19769;48.150;16.306;2022-09-09T11:55:39;1.48;;;1.02;;
33427;SDS011;19769;48.150;16.306;2022-09-09T11:58:06;3.13;;;1.10;;
33427;SDS011;19769;48.150;16.306;2022-09-09T12:00:43;2.72;;;1.10;;
33427;SDS011;19769;48.150;16.306;2022-09-09T12:05:55;2.00;;;1.10;;
33427;SDS011;19769;48.150;16.306;2022-09-09T12:08:24;3.70;;;1.08;;
33427;SDS011;19769;48.150;16.306;2022-09-09T12:10:56;2.38;;;1.00;;
33427;SDS011;19769;48.150;16.306;2022-09-09T12:13:25;1.52;;;0.80;;
33427;SDS011;19769;48.150;16.306;2022-09-09T12:15:57;2.08;;;1.00;;
33427;SDS011;19769;48.150;16.306;2022-09-09T12:20:58;2.28;;;1.15;;
33427;SDS011;19769;48.150;16.306;2022-09-09T12:23:35;1.77;;;0.82;;
33427;SDS011;19769;48.150;16.306;2022-09-09T12:26:09;2.67;;;1.40;;
33427;SDS011;19769;48.150;16.306;2022-09-09T12:28:44;1.42;;;0.90;;
33427;SDS011;19769;48.150;16.306;2022-09-09T12:39:58;1.75;;;0.90;;
33427;SDS011;19769;48.150;16.306;2022-09-09T12:42:25;1.77;;;0.80;;
33427;SDS011;19769;48.150;16.306;2022-09-09T12:44:58;1.50;;;1.00;;
33427;SDS011;19769;48.150;16.306;2022-09-09T12:52:44;1.83;;;0.90;;
33427;SDS011;19769;48.150;16.306;2022-09-09T12:55:16;1.83;;;1.00;;
33427;SDS011;19769;48.150;16.306;2022-09-09T12:57:43;1.60;;;0.80;;
33427;SDS011;19769;48.150;16.306;2022-09-09T13:00:19;1.17;;;0.90;;
33427;SDS011;19769;48.150;16.306;2022-09-09T13:05:15;2.58;;;1.00;;
33427;SDS011;19769;48.150;16.306;2022-09-09T13:07:42;2.30;;;1.30;;
33427;SDS011;19769;48.150;16.306;2022-09-09T13:10:10;3.60;;;1.60;;
33427;SDS011;19769;48.150;16.306;2022-09-09T13:12:36;1.80;;;1.17;;
33427;SDS011;19769;48.150;16.306;2022-09-09T13:15:03;2.05;;;1.10;;
33427;SDS011;19769;48.150;16.306;2022-09-09T13:17:29;1.50;;;1.00;;
33427;SDS011;19769;48.150;16.306;2022-09-09T13:19:56;2.20;;;1.10;;
33427;SDS011;19769;48.150;16.306;2022-09-09T13:22:27;1.65;;;1.00;;
33427;SDS011;19769;48.150;16.306;2022-09-09T13:24:59;2.38;;;1.30;;
33427;SDS011;19769;48.150;16.306;2022-09-09T13:27:32;1.80;;;1.15;;
33427;SDS011;19769;48.150;16.306;2022-09-09T13:29:59;2.50;;;1.10;;
33427;SDS011;19769;48.150;16.306;2022-09-09T13:32:26;2.03;;;1.20;;
33427;SDS011;19769;48.150;16.306;2022-09-09T13:34:56;3.03;;;1.20;;
33427;SDS011;19769;48.150;16.306;2022-09-09T13:39:56;2.30;;;1.20;;
33427;SDS011;19769;48.150;16.306;2022-09-09T13:42:24;2.38;;;1.20;;
33427;SDS011;19769;48.150;16.306;2022-09-09T13:44:51;2.78;;;1.35;;
33427;SDS011;19769;48.150;16.306;2022-09-09T13:47:19;3.20;;;1.50;;
33427;SDS011;19769;48.150;16.306;2022-09-09T13:49:45;4.45;;;2.17;;
33427;SDS011;19769;48.150;16.306;2022-09-09T13:52:13;2.55;;;1.60;;
33427;SDS011;19769;48.150;16.306;2022-09-09T13:54:40;3.20;;;1.90;;
33427;SDS011;19769;48.150;16.306;2022-09-09T13:57:29;3.45;;;1.80;;
33427;SDS011;19769;48.150;16.306;2022-09-09T14:00:02;2.17;;;1.33;;
33427;SDS011;19769;48.150;16.306;2022-09-09T14:02:29;2.80;;;1.40;;
33427;SDS011;19769;48.150;16.306;2022-09-09T14:04:56;2.53;;;1.42;;
33427;SDS011;19769;48.150;16.306;2022-09-09T14:07:22;3.88;;;1.40;;
33427;SDS011;19769;48.150;16.306;2022-09-09T14:09:48;1.95;;;1.27;;
33427;SDS011;19769;48.150;16.306;2022-09-09T14:12:17;3.17;;;1.60;;
33427;SDS011;19769;48.150;16.306;2022-09-09T14:14:43;4.38;;;1.55;;
33427;SDS011;19769;48.150;16.306;2022-09-09T14:17:10;2.47;;;1.10;;
33427;SDS011;19769;48.150;16.306;2022-09-09T14:19:37;4.25;;;1.33;;
33427;SDS011;19769;48.150;16.306;2022-09-09T14:22:03;3.58;;;1.35;;
33427;SDS011;19769;48.150;16.306;2022-09-09T14:24:29;2.22;;;1.00;;
33427;SDS011;19769;48.150;16.306;2022-09-09T14:26:55;2.15;;;1.20;;
33427;SDS011;19769;48.150;16.306;2022-09-09T14:29:22;2.08;;;1.15;;
33427;SDS011;19769;48.150;16.306;2022-09-09T14:31:50;1.58;;;0.80;;
33427;SDS011;19769;48.150;16.306;2022-09-09T14:34:16;1.30;;;0.80;;
33427;SDS011;19769;48.150;16.306;2022-09-09T14:36:42;2.05;;;1.00;;
33427;SDS011;19769;48.150;16.306;2022-09-09T14:39:09;4.30;;;1.23;;
33427;SDS011;19769;48.150;16.306;2022-09-09T14:41:35;1.60;;;0.80;;
33427;SDS011;19769;48.150;16.306;2022-09-09T14:44:01;0.95;;;0.80;;
33427;SDS011;19769;48.150;16.306;2022-09-09T14:46:27;1.80;;;0.85;;
33427;SDS011;19769;48.150;16.306;2022-09-09T14:48:52;1.65;;;1.00;;
33427;SDS011;19769;48.150;16.306;2022-09-09T14:51:19;1.50;;;0.90;;
33427;SDS011;19769;48.150;16.306;2022-09-09T14:53:53;2.55;;;1.30;;
33427;SDS011;19769;48.150;16.306;2022-09-09T14:56:22;3.53;;;2.00;;
33427;SDS011;19769;48.150;16.306;2022-09-09T14:58:52;2.22;;;1.00;;
33427;SDS011;19769;48.150;16.306;2022-09-09T15:01:20;2.20;;;1.10;;
33427;SDS011;19769;48.150;16.306;2022-09-09T15:03:48;2.05;;;1.00;;
33427;SDS011;19769;48.150;16.306;2022-09-09T15:06:23;1.80;;;1.00;;
33427;SDS011;19769;48.150;16.306;2022-09-09T15:08:51;2.17;;;1.10;;
33427;SDS011;19769;48.150;16.306;2022-09-09T15:11:17;1.77;;;1.00;;
33427;SDS011;19769;48.150;16.306;2022-09-09T15:13:45;1.38;;;0.80;;
33427;SDS011;19769;48.150;16.306;2022-09-09T15:16:13;1.75;;;0.90;;
33427;SDS011;19769;48.150;16.306;2022-09-09T15:18:43;2.08;;;0.82;;
33427;SDS011;19769;48.150;16.306;2022-09-09T15:21:14;1.90;;;0.90;;
33427;SDS011;19769;48.150;16.306;2022-09-09T15:23:42;2.08;;;1.00;;
33427;SDS011;19769;48.150;16.306;2022-09-09T15:26:08;1.35;;;0.98;;
33427;SDS011;19769;48.150;16.306;2022-09-09T15:28:35;1.48;;;0.80;;
33427;SDS011;19769;48.150;16.306;2022-09-09T15:31:09;2.40;;;0.90;;
33427;SDS011;19769;48.150;16.306;2022-09-09T15:33:40;1.98;;;1.00;;
33427;SDS011;19769;48.150;16.306;2022-09-09T15:38:47;1.52;;;0.90;;
33427;SDS011;19769;48.150;16.306;2022-09-09T15:41:14;1.55;;;0.88;;
33427;SDS011;19769;48.150;16.306;2022-09-09T15:43:50;1.80;;;0.70;;
33427;SDS011;19769;48.150;16.306;2022-09-09T15:48:42;2.47;;;0.98;;
33427;SDS011;19769;48.150;16.306;2022-09-09T15:51:13;1.73;;;0.93;;
33427;SDS011;19769;48.150;16.306;2022-09-09T15:53:40;2.20;;;1.00;;
33427;SDS011;19769;48.150;16.306;2022-09-09T15:56:06;3.17;;;1.13;;
33427;SDS011;19769;48.150;16.306;2022-09-09T15:58:33;2.20;;;1.10;;
33427;SDS011;19769;48.150;16.306;2022-09-09T16:03:30;2.78;;;1.00;;
33427;SDS011;19769;48.150;16.306;2022-09-09T16:05:56;1.95;;;1.00;;
33427;SDS011;19769;48.150;16.306;2022-09-09T16:08:22;2.00;;;1.10;;
33427;SDS011;19769;48.150;16.306;2022-09-09T16:10:48;3.60;;;1.05;;
33427;SDS011;19769;48.150;16.306;2022-09-09T16:13:14;2.20;;;1.10;;
33427;SDS011;19769;48.150;16.306;2022-09-09T16:15:40;1.63;;;0.80;;
33427;SDS011;19769;48.150;16.306;2022-09-09T16:18:07;2.13;;;1.00;;
33427;SDS011;19769;48.150;16.306;2022-09-09T16:20:33;2.22;;;1.10;;
33427;SDS011;19769;48.150;16.306;2022-09-09T16:23:00;1.80;;;1.10;;
33427;SDS011;19769;48.150;16.306;2022-09-09T16:25:27;2.28;;;1.20;;
33427;SDS011;19769;48.150;16.306;2022-09-09T16:27:52;1.48;;;0.80;;
33427;SDS011;19769;48.150;16.306;2022-09-09T16:30:18;1.40;;;0.90;;
33427;SDS011;19769;48.150;16.306;2022-09-09T16:32:44;1.63;;;1.30;;
33427;SDS011;19769;48.150;16.306;2022-09-09T16:35:10;3.58;;;1.08;;
33427;SDS011;19769;48.150;16.306;2022-09-09T16:37:36;1.45;;;0.93;;
33427;SDS011;19769;48.150;16.306;2022-09-09T16:40:06;1.52;;;0.90;;
33427;SDS011;19769;48.150;16.306;2022-09-09T16:42:34;1.67;;;0.90;;
33427;SDS011;19769;48.150;16.306;2022-09-09T16:45:01;2.85;;;1.10;;
33427;SDS011;19769;48.150;16.306;2022-09-09T16:47:27;2.47;;;0.90;;
33427;SDS011;19769;48.150;16.306;2022-09-09T16:49:53;1.45;;;0.93;;
33427;SDS011;19769;48.150;16.306;2022-09-09T16:52:19;2.80;;;1.10;;
33427;SDS011;19769;48.150;16.306;2022-09-09T16:54:45;1.70;;;0.90;;
33427;SDS011;19769;48.150;16.306;2022-09-09T16:57:11;2.22;;;1.20;;
33427;SDS011;19769;48.150;16.306;2022-09-09T16:59:37;1.92;;;1.30;;
33427;SDS011;19769;48.150;16.306;2022-09-09T17:02:03;2.42;;;1.40;;
33427;SDS011;19769;48.150;16.306;2022-09-09T17:04:31;2.13;;;1.27;;
33427;SDS011;19769;48.150;16.306;2022-09-09T17:06:57;2.30;;;1.20;;
33427;SDS011;19769;48.150;16.306;2022-09-09T17:09:25;2.20;;;1.40;;
33427;SDS011;19769;48.150;16.306;2022-09-09T17:11:54;1.80;;;1.25;;
33427;SDS011;19769;48.150;16.306;2022-09-09T17:14:20;2.35;;;1.50;;
33427;SDS011;19769;48.150;16.306;2022-09-09T17:16:47;2.35;;;1.40;;